sensor_id;sensor_type;location;lat;lon;timestamp;temperature;humidity
11005;DHT22;5555;59.622;16.556;2023-06-14T00:00:41;16.10;85.30
11005;DHT22;5555;59.622;16.556;2023-06-14T00:03:08;16.00;85.30
11005;DHT22;5555;59.622;16.556;2023-06-14T00:05:35;16.10;85.20
11005;DHT22;5555;59.622;16.556;2023-06-14T00:08:06;16.00;85.50
11005;DHT22;5555;59.622;16.556;2023-06-14T00:10:34;16.00;86.40
11005;DHT22;5555;59.622;16.556;2023-06-14T00:13:01;16.00;86.40
11005;DHT22;5555;59.622;16.556;2023-06-14T00:15:27;16.00;86.80
11005;DHT22;5555;59.622;16.556;2023-06-14T00:17:53;16.00;86.90
11005;DHT22;5555;59.622;16.556;2023-06-14T00:20:20;16.00;87.30
11005;DHT22;5555;59.622;16.556;2023-06-14T00:22:46;16.00;87.30
11005;DHT22;5555;59.622;16.556;2023-06-14T00:25:12;16.10;86.80
11005;DHT22;5555;59.622;16.556;2023-06-14T00:27:37;16.10;87.60
11005;DHT22;5555;59.622;16.556;2023-06-14T00:30:03;16.00;88.10
11005;DHT22;5555;59.622;16.556;2023-06-14T00:32:29;16.00;88.40
11005;DHT22;5555;59.622;16.556;2023-06-14T00:34:55;15.90;88.20
11005;DHT22;5555;59.622;16.556;2023-06-14T00:37:21;15.90;87.90
11005;DHT22;5555;59.622;16.556;2023-06-14T00:39:47;15.90;87.90
11005;DHT22;5555;59.622;16.556;2023-06-14T00:42:26;15.90;87.90
11005;DHT22;5555;59.622;16.556;2023-06-14T00:44:52;15.90;87.90
11005;DHT22;5555;59.622;16.556;2023-06-14T00:47:18;16.00;87.60
11005;DHT22;5555;59.622;16.556;2023-06-14T00:49:51;16.00;86.70
11005;DHT22;5555;59.622;16.556;2023-06-14T00:52:18;16.00;86.60
11005;DHT22;5555;59.622;16.556;2023-06-14T00:54:44;16.00;87.50
11005;DHT22;5555;59.622;16.556;2023-06-14T00:57:10;16.00;86.80
11005;DHT22;5555;59.622;16.556;2023-06-14T00:59:49;16.00;86.20
11005;DHT22;5555;59.622;16.556;2023-06-14T01:02:15;16.10;86.10
11005;DHT22;5555;59.622;16.556;2023-06-14T01:04:43;16.10;86.60
11005;DHT22;5555;59.622;16.556;2023-06-14T01:12:31;16.00;86.20
11005;DHT22;5555;59.622;16.556;2023-06-14T01:15:01;16.00;86.30
11005;DHT22;5555;59.622;16.556;2023-06-14T01:17:27;16.00;86.30
11005;DHT22;5555;59.622;16.556;2023-06-14T01:20:06;16.00;86.30
11005;DHT22;5555;59.622;16.556;2023-06-14T01:22:35;16.00;86.10
11005;DHT22;5555;59.622;16.556;2023-06-14T01:25:01;16.00;86.00
11005;DHT22;5555;59.622;16.556;2023-06-14T01:27:27;16.00;86.00
11005;DHT22;5555;59.622;16.556;2023-06-14T01:29:58;16.00;86.20
11005;DHT22;5555;59.622;16.556;2023-06-14T01:32:27;15.90;86.60
11005;DHT22;5555;59.622;16.556;2023-06-14T01:34:53;16.00;86.90
11005;DHT22;5555;59.622;16.556;2023-06-14T01:37:20;16.00;86.90
11005;DHT22;5555;59.622;16.556;2023-06-14T01:39:48;16.00;87.00
11005;DHT22;5555;59.622;16.556;2023-06-14T01:42:16;16.00;86.70
11005;DHT22;5555;59.622;16.556;2023-06-14T01:44:42;15.90;87.20
11005;DHT22;5555;59.622;16.556;2023-06-14T01:47:08;15.90;87.90
11005;DHT22;5555;59.622;16.556;2023-06-14T01:49:34;15.90;87.00
11005;DHT22;5555;59.622;16.556;2023-06-14T01:52:01;15.90;87.40
11005;DHT22;5555;59.622;16.556;2023-06-14T01:54:26;15.90;87.20
11005;DHT22;5555;59.622;16.556;2023-06-14T01:56:52;16.00;87.20
11005;DHT22;5555;59.622;16.556;2023-06-14T01:59:18;16.00;87.30
11005;DHT22;5555;59.622;16.556;2023-06-14T02:01:44;16.00;87.60
11005;DHT22;5555;59.622;16.556;2023-06-14T02:04:11;16.00;87.70
11005;DHT22;5555;59.622;16.556;2023-06-14T02:06:37;15.90;87.50
11005;DHT22;5555;59.622;16.556;2023-06-14T02:09:02;16.00;87.60
11005;DHT22;5555;59.622;16.556;2023-06-14T02:11:28;16.00;87.30
11005;DHT22;5555;59.622;16.556;2023-06-14T02:13:55;16.00;87.30
11005;DHT22;5555;59.622;16.556;2023-06-14T02:16:20;16.00;88.40
11005;DHT22;5555;59.622;16.556;2023-06-14T02:18:47;16.00;88.30
11005;DHT22;5555;59.622;16.556;2023-06-14T02:21:13;16.00;87.90
11005;DHT22;5555;59.622;16.556;2023-06-14T02:23:39;16.00;87.80
11005;DHT22;5555;59.622;16.556;2023-06-14T02:26:05;16.00;87.90
11005;DHT22;5555;59.622;16.556;2023-06-14T02:28:31;16.00;88.60
11005;DHT22;5555;59.622;16.556;2023-06-14T02:30:56;16.10;87.90
11005;DHT22;5555;59.622;16.556;2023-06-14T02:33:22;16.10;87.80
11005;DHT22;5555;59.622;16.556;2023-06-14T02:35:47;16.10;87.50
11005;DHT22;5555;59.622;16.556;2023-06-14T02:38:13;16.10;87.80
11005;DHT22;5555;59.622;16.556;2023-06-14T02:40:39;16.10;87.90
11005;DHT22;5555;59.622;16.556;2023-06-14T02:43:06;16.00;87.80
11005;DHT22;5555;59.622;16.556;2023-06-14T02:45:31;16.10;87.80
11005;DHT22;5555;59.622;16.556;2023-06-14T02:47:57;16.10;89.00
11005;DHT22;5555;59.622;16.556;2023-06-14T02:50:22;16.10;88.90
11005;DHT22;5555;59.622;16.556;2023-06-14T02:52:49;16.10;88.60
11005;DHT22;5555;59.622;16.556;2023-06-14T02:55:15;16.10;88.70
11005;DHT22;5555;59.622;16.556;2023-06-14T02:57:40;16.10;88.80
11005;DHT22;5555;59.622;16.556;2023-06-14T03:00:08;16.10;88.90
11005;DHT22;5555;59.622;16.556;2023-06-14T03:02:35;16.20;89.30
11005;DHT22;5555;59.622;16.556;2023-06-14T03:05:01;16.20;89.90
11005;DHT22;5555;59.622;16.556;2023-06-14T03:07:28;16.10;89.80
11005;DHT22;5555;59.622;16.556;2023-06-14T03:09:55;16.20;90.10
11005;DHT22;5555;59.622;16.556;2023-06-14T03:12:20;16.20;90.00
11005;DHT22;5555;59.622;16.556;2023-06-14T03:14:46;16.20;89.90
11005;DHT22;5555;59.622;16.556;2023-06-14T03:17:12;16.20;89.90
11005;DHT22;5555;59.622;16.556;2023-06-14T03:19:37;16.20;90.30
11005;DHT22;5555;59.622;16.556;2023-06-14T03:22:03;16.30;90.20
11005;DHT22;5555;59.622;16.556;2023-06-14T03:24:29;16.30;90.30
11005;DHT22;5555;59.622;16.556;2023-06-14T03:26:57;16.30;90.50
11005;DHT22;5555;59.622;16.556;2023-06-14T03:29:22;16.30;90.70
11005;DHT22;5555;59.622;16.556;2023-06-14T03:31:59;16.40;90.80
11005;DHT22;5555;59.622;16.556;2023-06-14T03:34:25;16.30;90.80
11005;DHT22;5555;59.622;16.556;2023-06-14T03:36:51;16.40;90.90
11005;DHT22;5555;59.622;16.556;2023-06-14T03:39:17;16.50;91.40
11005;DHT22;5555;59.622;16.556;2023-06-14T03:41:42;16.40;91.20
11005;DHT22;5555;59.622;16.556;2023-06-14T03:44:08;16.40;91.50
11005;DHT22;5555;59.622;16.556;2023-06-14T03:46:33;16.40;92.00
11005;DHT22;5555;59.622;16.556;2023-06-14T03:48:59;16.40;92.50
11005;DHT22;5555;59.622;16.556;2023-06-14T03:51:25;16.50;92.40
11005;DHT22;5555;59.622;16.556;2023-06-14T03:53:51;16.50;92.40
11005;DHT22;5555;59.622;16.556;2023-06-14T03:56:17;16.70;93.10
11005;DHT22;5555;59.622;16.556;2023-06-14T03:58:42;16.70;92.70
11005;DHT22;5555;59.622;16.556;2023-06-14T04:01:08;16.80;93.00
11005;DHT22;5555;59.622;16.556;2023-06-14T04:03:33;16.80;93.10
11005;DHT22;5555;59.622;16.556;2023-06-14T04:06:00;16.80;93.30
11005;DHT22;5555;59.622;16.556;2023-06-14T04:08:25;16.90;93.40
11005;DHT22;5555;59.622;16.556;2023-06-14T04:10:51;16.90;93.70
11005;DHT22;5555;59.622;16.556;2023-06-14T04:13:17;17.00;93.80
11005;DHT22;5555;59.622;16.556;2023-06-14T04:15:43;17.00;93.60
11005;DHT22;5555;59.622;16.556;2023-06-14T04:18:11;17.20;93.60
11005;DHT22;5555;59.622;16.556;2023-06-14T04:20:37;17.10;93.60
11005;DHT22;5555;59.622;16.556;2023-06-14T04:23:16;17.10;93.50
11005;DHT22;5555;59.622;16.556;2023-06-14T04:25:43;17.20;93.00
11005;DHT22;5555;59.622;16.556;2023-06-14T04:28:11;17.30;93.20
11005;DHT22;5555;59.622;16.556;2023-06-14T04:30:37;17.40;93.70
11005;DHT22;5555;59.622;16.556;2023-06-14T04:33:04;17.40;92.80
11005;DHT22;5555;59.622;16.556;2023-06-14T04:35:31;17.50;93.10
11005;DHT22;5555;59.622;16.556;2023-06-14T04:38:01;17.50;93.20
11005;DHT22;5555;59.622;16.556;2023-06-14T04:40:30;17.70;93.20
11005;DHT22;5555;59.622;16.556;2023-06-14T04:42:56;17.90;92.90
11005;DHT22;5555;59.622;16.556;2023-06-14T04:45:23;17.90;93.00
11005;DHT22;5555;59.622;16.556;2023-06-14T04:47:49;17.90;92.60
11005;DHT22;5555;59.622;16.556;2023-06-14T04:50:16;18.00;92.70
11005;DHT22;5555;59.622;16.556;2023-06-14T04:52:43;18.10;92.70
11005;DHT22;5555;59.622;16.556;2023-06-14T04:55:09;18.20;93.40
11005;DHT22;5555;59.622;16.556;2023-06-14T04:57:35;18.30;92.20
11005;DHT22;5555;59.622;16.556;2023-06-14T05:00:01;18.30;92.10
11005;DHT22;5555;59.622;16.556;2023-06-14T05:02:31;18.30;92.10
11005;DHT22;5555;59.622;16.556;2023-06-14T05:04:56;18.30;92.30
11005;DHT22;5555;59.622;16.556;2023-06-14T05:07:22;18.40;93.00
11005;DHT22;5555;59.622;16.556;2023-06-14T05:09:49;18.60;92.30
11005;DHT22;5555;59.622;16.556;2023-06-14T05:12:15;18.60;92.30
11005;DHT22;5555;59.622;16.556;2023-06-14T05:14:44;18.80;92.20
11005;DHT22;5555;59.622;16.556;2023-06-14T05:17:10;18.90;91.60
11005;DHT22;5555;59.622;16.556;2023-06-14T05:19:36;19.00;91.80
11005;DHT22;5555;59.622;16.556;2023-06-14T05:22:01;19.10;91.00
11005;DHT22;5555;59.622;16.556;2023-06-14T05:24:28;19.10;91.30
11005;DHT22;5555;59.622;16.556;2023-06-14T05:26:56;19.10;91.80
11005;DHT22;5555;59.622;16.556;2023-06-14T05:29:21;19.20;91.80
11005;DHT22;5555;59.622;16.556;2023-06-14T05:31:47;19.30;91.70
11005;DHT22;5555;59.622;16.556;2023-06-14T05:34:13;19.30;91.70
11005;DHT22;5555;59.622;16.556;2023-06-14T05:36:38;19.20;91.20
11005;DHT22;5555;59.622;16.556;2023-06-14T05:39:04;19.20;91.60
11005;DHT22;5555;59.622;16.556;2023-06-14T05:41:31;19.40;91.50
11005;DHT22;5555;59.622;16.556;2023-06-14T05:43:57;19.40;91.50
11005;DHT22;5555;59.622;16.556;2023-06-14T05:46:23;19.40;91.60
11005;DHT22;5555;59.622;16.556;2023-06-14T05:48:54;19.50;91.00
11005;DHT22;5555;59.622;16.556;2023-06-14T05:51:20;19.50;91.00
11005;DHT22;5555;59.622;16.556;2023-06-14T05:53:47;19.60;90.70
11005;DHT22;5555;59.622;16.556;2023-06-14T05:56:14;19.60;90.50
11005;DHT22;5555;59.622;16.556;2023-06-14T05:58:40;19.80;90.80
11005;DHT22;5555;59.622;16.556;2023-06-14T06:01:06;19.80;90.40
11005;DHT22;5555;59.622;16.556;2023-06-14T06:03:32;19.90;90.40
11005;DHT22;5555;59.622;16.556;2023-06-14T06:05:58;20.10;90.40
11005;DHT22;5555;59.622;16.556;2023-06-14T06:08:24;20.10;90.30
11005;DHT22;5555;59.622;16.556;2023-06-14T06:10:49;20.20;90.10
11005;DHT22;5555;59.622;16.556;2023-06-14T06:13:15;20.10;89.90
11005;DHT22;5555;59.622;16.556;2023-06-14T06:15:41;20.20;90.00
11005;DHT22;5555;59.622;16.556;2023-06-14T06:18:07;20.20;90.20
11005;DHT22;5555;59.622;16.556;2023-06-14T06:20:32;20.20;90.30
11005;DHT22;5555;59.622;16.556;2023-06-14T06:22:58;20.30;90.40
11005;DHT22;5555;59.622;16.556;2023-06-14T06:25:25;20.50;90.20
11005;DHT22;5555;59.622;16.556;2023-06-14T06:27:52;20.70;90.50
11005;DHT22;5555;59.622;16.556;2023-06-14T06:30:19;21.10;88.80
11005;DHT22;5555;59.622;16.556;2023-06-14T06:32:46;21.60;88.30
11005;DHT22;5555;59.622;16.556;2023-06-14T06:35:12;21.90;87.80
11005;DHT22;5555;59.622;16.556;2023-06-14T06:37:41;22.10;88.00
11005;DHT22;5555;59.622;16.556;2023-06-14T06:40:08;22.40;88.00
11005;DHT22;5555;59.622;16.556;2023-06-14T06:42:34;22.70;86.80
11005;DHT22;5555;59.622;16.556;2023-06-14T06:45:00;23.00;85.10
11005;DHT22;5555;59.622;16.556;2023-06-14T06:47:26;23.50;82.80
11005;DHT22;5555;59.622;16.556;2023-06-14T06:49:52;24.20;80.70
11005;DHT22;5555;59.622;16.556;2023-06-14T06:52:17;24.30;79.50
11005;DHT22;5555;59.622;16.556;2023-06-14T06:54:43;24.70;78.70
11005;DHT22;5555;59.622;16.556;2023-06-14T06:57:09;24.60;79.00
11005;DHT22;5555;59.622;16.556;2023-06-14T06:59:36;25.10;78.20
11005;DHT22;5555;59.622;16.556;2023-06-14T07:02:02;25.20;76.70
11005;DHT22;5555;59.622;16.556;2023-06-14T07:04:28;25.00;75.00
11005;DHT22;5555;59.622;16.556;2023-06-14T07:06:53;24.90;74.20
11005;DHT22;5555;59.622;16.556;2023-06-14T07:09:19;24.70;74.70
11005;DHT22;5555;59.622;16.556;2023-06-14T07:11:47;24.70;74.80
11005;DHT22;5555;59.622;16.556;2023-06-14T07:14:12;25.10;74.80
11005;DHT22;5555;59.622;16.556;2023-06-14T07:16:38;25.30;74.60
11005;DHT22;5555;59.622;16.556;2023-06-14T07:19:04;25.30;74.70
11005;DHT22;5555;59.622;16.556;2023-06-14T07:21:30;25.60;72.00
11005;DHT22;5555;59.622;16.556;2023-06-14T07:23:56;25.40;72.20
11005;DHT22;5555;59.622;16.556;2023-06-14T07:26:22;25.10;72.60
11005;DHT22;5555;59.622;16.556;2023-06-14T07:28:48;25.20;71.80
11005;DHT22;5555;59.622;16.556;2023-06-14T07:31:14;25.30;71.70
11005;DHT22;5555;59.622;16.556;2023-06-14T07:33:41;25.10;73.20
11005;DHT22;5555;59.622;16.556;2023-06-14T07:36:07;24.90;72.10
11005;DHT22;5555;59.622;16.556;2023-06-14T07:38:32;25.00;71.50
11005;DHT22;5555;59.622;16.556;2023-06-14T07:40:58;25.10;71.00
11005;DHT22;5555;59.622;16.556;2023-06-14T07:43:24;25.30;71.40
11005;DHT22;5555;59.622;16.556;2023-06-14T07:45:49;25.10;72.50
11005;DHT22;5555;59.622;16.556;2023-06-14T07:48:15;25.10;71.20
11005;DHT22;5555;59.622;16.556;2023-06-14T07:50:40;25.20;70.30
11005;DHT22;5555;59.622;16.556;2023-06-14T07:53:06;25.40;70.10
11005;DHT22;5555;59.622;16.556;2023-06-14T07:55:32;25.60;69.60
11005;DHT22;5555;59.622;16.556;2023-06-14T07:57:59;25.40;65.80
11005;DHT22;5555;59.622;16.556;2023-06-14T08:00:24;25.90;65.50
11005;DHT22;5555;59.622;16.556;2023-06-14T08:02:50;26.00;66.60
11005;DHT22;5555;59.622;16.556;2023-06-14T08:05:17;26.20;65.00
11005;DHT22;5555;59.622;16.556;2023-06-14T08:07:43;26.00;62.10
11005;DHT22;5555;59.622;16.556;2023-06-14T08:10:09;26.40;62.50
11005;DHT22;5555;59.622;16.556;2023-06-14T08:12:34;26.80;61.20
11005;DHT22;5555;59.622;16.556;2023-06-14T08:15:00;27.30;61.30
11005;DHT22;5555;59.622;16.556;2023-06-14T08:17:26;27.40;60.90
11005;DHT22;5555;59.622;16.556;2023-06-14T08:19:52;27.50;59.50
11005;DHT22;5555;59.622;16.556;2023-06-14T08:22:22;27.30;58.00
11005;DHT22;5555;59.622;16.556;2023-06-14T08:24:50;27.60;56.40
11005;DHT22;5555;59.622;16.556;2023-06-14T08:27:16;27.50;56.60
11005;DHT22;5555;59.622;16.556;2023-06-14T08:29:42;27.10;58.90
11005;DHT22;5555;59.622;16.556;2023-06-14T08:32:08;27.40;63.20
11005;DHT22;5555;59.622;16.556;2023-06-14T08:34:34;27.40;62.40
11005;DHT22;5555;59.622;16.556;2023-06-14T08:37:00;27.70;59.30
11005;DHT22;5555;59.622;16.556;2023-06-14T08:39:25;27.50;58.00
11005;DHT22;5555;59.622;16.556;2023-06-14T08:41:52;27.80;59.20
11005;DHT22;5555;59.622;16.556;2023-06-14T08:44:18;27.60;54.50
11005;DHT22;5555;59.622;16.556;2023-06-14T08:46:44;27.50;53.10
11005;DHT22;5555;59.622;16.556;2023-06-14T08:49:16;26.90;54.70
11005;DHT22;5555;59.622;16.556;2023-06-14T08:51:43;26.80;53.30
11005;DHT22;5555;59.622;16.556;2023-06-14T08:54:10;27.30;53.70
11005;DHT22;5555;59.622;16.556;2023-06-14T08:56:38;27.40;54.60
11005;DHT22;5555;59.622;16.556;2023-06-14T08:59:04;27.80;54.40
11005;DHT22;5555;59.622;16.556;2023-06-14T09:01:36;28.00;50.90
11005;DHT22;5555;59.622;16.556;2023-06-14T09:04:02;28.30;51.30
11005;DHT22;5555;59.622;16.556;2023-06-14T09:06:28;28.10;54.60
11005;DHT22;5555;59.622;16.556;2023-06-14T09:08:55;28.50;55.30
11005;DHT22;5555;59.622;16.556;2023-06-14T09:11:24;28.20;53.80
11005;DHT22;5555;59.622;16.556;2023-06-14T09:13:51;27.80;56.40
11005;DHT22;5555;59.622;16.556;2023-06-14T09:16:17;28.10;54.70
11005;DHT22;5555;59.622;16.556;2023-06-14T09:18:44;27.90;55.10
11005;DHT22;5555;59.622;16.556;2023-06-14T09:21:13;28.00;57.20
11005;DHT22;5555;59.622;16.556;2023-06-14T09:23:39;28.50;55.40
11005;DHT22;5555;59.622;16.556;2023-06-14T09:26:10;28.40;55.20
11005;DHT22;5555;59.622;16.556;2023-06-14T09:28:36;28.10;56.50
11005;DHT22;5555;59.622;16.556;2023-06-14T09:31:07;28.40;54.80
11005;DHT22;5555;59.622;16.556;2023-06-14T09:33:34;28.30;54.30
11005;DHT22;5555;59.622;16.556;2023-06-14T09:35:59;28.40;54.00
11005;DHT22;5555;59.622;16.556;2023-06-14T09:38:25;28.70;53.40
11005;DHT22;5555;59.622;16.556;2023-06-14T09:40:52;28.50;53.10
11005;DHT22;5555;59.622;16.556;2023-06-14T09:43:18;28.30;54.00
11005;DHT22;5555;59.622;16.556;2023-06-14T09:45:45;28.40;54.70
11005;DHT22;5555;59.622;16.556;2023-06-14T09:48:14;28.70;54.10
11005;DHT22;5555;59.622;16.556;2023-06-14T09:50:47;29.20;52.10
11005;DHT22;5555;59.622;16.556;2023-06-14T09:53:15;29.80;49.80
11005;DHT22;5555;59.622;16.556;2023-06-14T09:55:44;29.30;48.90
11005;DHT22;5555;59.622;16.556;2023-06-14T09:58:10;29.40;48.70
11005;DHT22;5555;59.622;16.556;2023-06-14T10:00:39;29.60;49.00
11005;DHT22;5555;59.622;16.556;2023-06-14T10:03:12;29.70;48.20
11005;DHT22;5555;59.622;16.556;2023-06-14T10:05:41;29.20;50.20
11005;DHT22;5555;59.622;16.556;2023-06-14T10:08:13;29.70;49.40
11005;DHT22;5555;59.622;16.556;2023-06-14T10:10:39;29.40;49.70
11005;DHT22;5555;59.622;16.556;2023-06-14T10:13:08;29.20;49.30
11005;DHT22;5555;59.622;16.556;2023-06-14T10:24:38;29.80;49.00
11005;DHT22;5555;59.622;16.556;2023-06-14T10:27:07;29.10;50.50
11005;DHT22;5555;59.622;16.556;2023-06-14T10:32:27;29.40;49.60
11005;DHT22;5555;59.622;16.556;2023-06-14T10:34:57;29.20;50.90
11005;DHT22;5555;59.622;16.556;2023-06-14T10:37:23;29.10;51.40
11005;DHT22;5555;59.622;16.556;2023-06-14T10:39:50;29.50;50.80
11005;DHT22;5555;59.622;16.556;2023-06-14T10:42:16;29.60;50.20
11005;DHT22;5555;59.622;16.556;2023-06-14T10:45:02;29.80;50.50
11005;DHT22;5555;59.622;16.556;2023-06-14T10:47:34;29.90;51.80
11005;DHT22;5555;59.622;16.556;2023-06-14T10:50:08;29.90;49.20
11005;DHT22;5555;59.622;16.556;2023-06-14T10:52:41;29.70;49.90
11005;DHT22;5555;59.622;16.556;2023-06-14T10:55:11;29.60;51.10
11005;DHT22;5555;59.622;16.556;2023-06-14T10:57:47;29.50;50.70
11005;DHT22;5555;59.622;16.556;2023-06-14T11:00:17;29.40;48.70
11005;DHT22;5555;59.622;16.556;2023-06-14T11:05:29;29.40;50.80
11005;DHT22;5555;59.622;16.556;2023-06-14T11:10:42;30.40;48.00
11005;DHT22;5555;59.622;16.556;2023-06-14T11:13:08;29.70;49.50
11005;DHT22;5555;59.622;16.556;2023-06-14T11:15:36;29.10;49.80
11005;DHT22;5555;59.622;16.556;2023-06-14T11:18:04;28.80;49.60
11005;DHT22;5555;59.622;16.556;2023-06-14T11:20:34;28.90;49.70
11005;DHT22;5555;59.622;16.556;2023-06-14T11:23:01;29.40;50.30
11005;DHT22;5555;59.622;16.556;2023-06-14T11:25:27;30.30;48.70
11005;DHT22;5555;59.622;16.556;2023-06-14T11:27:56;29.50;48.90
11005;DHT22;5555;59.622;16.556;2023-06-14T11:30:22;29.50;50.10
11005;DHT22;5555;59.622;16.556;2023-06-14T11:32:53;29.90;49.30
11005;DHT22;5555;59.622;16.556;2023-06-14T11:35:21;30.10;48.30
11005;DHT22;5555;59.622;16.556;2023-06-14T11:37:48;30.10;48.20
11005;DHT22;5555;59.622;16.556;2023-06-14T11:40:15;30.40;47.40
11005;DHT22;5555;59.622;16.556;2023-06-14T11:42:41;31.20;47.10
11005;DHT22;5555;59.622;16.556;2023-06-14T11:45:11;31.30;47.80
11005;DHT22;5555;59.622;16.556;2023-06-14T11:47:38;31.60;46.60
11005;DHT22;5555;59.622;16.556;2023-06-14T11:50:06;32.00;45.90
11005;DHT22;5555;59.622;16.556;2023-06-14T11:52:33;32.20;45.60
11005;DHT22;5555;59.622;16.556;2023-06-14T11:54:59;32.60;47.50
11005;DHT22;5555;59.622;16.556;2023-06-14T11:57:25;33.40;46.80
11005;DHT22;5555;59.622;16.556;2023-06-14T11:59:51;34.00;44.40
11005;DHT22;5555;59.622;16.556;2023-06-14T12:02:18;34.20;43.90
11005;DHT22;5555;59.622;16.556;2023-06-14T12:04:47;34.30;43.20
11005;DHT22;5555;59.622;16.556;2023-06-14T12:07:15;33.60;44.60
11005;DHT22;5555;59.622;16.556;2023-06-14T12:10:03;33.40;44.40
11005;DHT22;5555;59.622;16.556;2023-06-14T12:12:38;33.50;48.80
11005;DHT22;5555;59.622;16.556;2023-06-14T12:15:08;33.20;45.70
11005;DHT22;5555;59.622;16.556;2023-06-14T12:17:35;33.90;43.60
11005;DHT22;5555;59.622;16.556;2023-06-14T12:20:19;34.50;43.10
11005;DHT22;5555;59.622;16.556;2023-06-14T12:22:55;34.70;43.30
11005;DHT22;5555;59.622;16.556;2023-06-14T12:25:33;35.10;42.30
11005;DHT22;5555;59.622;16.556;2023-06-14T12:30:31;35.60;66.20
11005;DHT22;5555;59.622;16.556;2023-06-14T12:32:57;35.40;43.00
11005;DHT22;5555;59.622;16.556;2023-06-14T12:35:22;34.70;42.10
11005;DHT22;5555;59.622;16.556;2023-06-14T12:37:48;34.60;43.00
11005;DHT22;5555;59.622;16.556;2023-06-14T12:40:14;34.40;45.00
11005;DHT22;5555;59.622;16.556;2023-06-14T12:42:44;34.70;44.80
11005;DHT22;5555;59.622;16.556;2023-06-14T12:45:10;34.50;44.00
11005;DHT22;5555;59.622;16.556;2023-06-14T12:47:35;33.60;45.60
11005;DHT22;5555;59.622;16.556;2023-06-14T12:50:01;33.60;44.20
11005;DHT22;5555;59.622;16.556;2023-06-14T12:52:27;33.60;43.20
11005;DHT22;5555;59.622;16.556;2023-06-14T12:54:52;33.30;45.20
11005;DHT22;5555;59.622;16.556;2023-06-14T12:57:18;34.70;43.20
11005;DHT22;5555;59.622;16.556;2023-06-14T12:59:43;35.60;42.10
11005;DHT22;5555;59.622;16.556;2023-06-14T13:02:17;35.50;41.00
11005;DHT22;5555;59.622;16.556;2023-06-14T13:04:43;35.60;42.00
11005;DHT22;5555;59.622;16.556;2023-06-14T13:07:09;36.50;41.50
11005;DHT22;5555;59.622;16.556;2023-06-14T13:09:36;36.40;40.80
11005;DHT22;5555;59.622;16.556;2023-06-14T13:12:02;36.70;40.00
11005;DHT22;5555;59.622;16.556;2023-06-14T13:14:28;36.90;40.20
11005;DHT22;5555;59.622;16.556;2023-06-14T13:16:54;35.60;42.20
11005;DHT22;5555;59.622;16.556;2023-06-14T13:19:20;34.30;43.10
11005;DHT22;5555;59.622;16.556;2023-06-14T13:21:47;35.60;40.40
11005;DHT22;5555;59.622;16.556;2023-06-14T13:24:13;36.00;40.60
11005;DHT22;5555;59.622;16.556;2023-06-14T13:26:39;36.30;40.40
11005;DHT22;5555;59.622;16.556;2023-06-14T13:29:04;36.00;40.90
11005;DHT22;5555;59.622;16.556;2023-06-14T13:31:30;36.60;41.10
11005;DHT22;5555;59.622;16.556;2023-06-14T13:33:56;36.20;40.70
11005;DHT22;5555;59.622;16.556;2023-06-14T13:36:21;35.70;42.40
11005;DHT22;5555;59.622;16.556;2023-06-14T13:38:47;36.40;40.40
11005;DHT22;5555;59.622;16.556;2023-06-14T13:41:13;36.80;41.00
11005;DHT22;5555;59.622;16.556;2023-06-14T13:43:38;37.00;39.70
11005;DHT22;5555;59.622;16.556;2023-06-14T13:46:04;35.60;42.30
11005;DHT22;5555;59.622;16.556;2023-06-14T13:48:29;35.30;41.50
11005;DHT22;5555;59.622;16.556;2023-06-14T13:50:55;36.10;41.30
11005;DHT22;5555;59.622;16.556;2023-06-14T13:53:22;37.70;39.40
11005;DHT22;5555;59.622;16.556;2023-06-14T13:55:48;36.80;41.30
11005;DHT22;5555;59.622;16.556;2023-06-14T13:58:13;36.00;40.20
11005;DHT22;5555;59.622;16.556;2023-06-14T14:00:40;35.70;40.70
11005;DHT22;5555;59.622;16.556;2023-06-14T14:03:06;36.10;42.60
11005;DHT22;5555;59.622;16.556;2023-06-14T14:05:32;36.50;40.70
11005;DHT22;5555;59.622;16.556;2023-06-14T14:07:58;36.60;40.60
11005;DHT22;5555;59.622;16.556;2023-06-14T14:10:25;36.60;40.40
11005;DHT22;5555;59.622;16.556;2023-06-14T14:12:51;36.10;41.30
11005;DHT22;5555;59.622;16.556;2023-06-14T14:15:18;36.30;41.80
11005;DHT22;5555;59.622;16.556;2023-06-14T14:17:43;36.80;42.00
11005;DHT22;5555;59.622;16.556;2023-06-14T14:20:10;36.80;41.70
11005;DHT22;5555;59.622;16.556;2023-06-14T14:22:38;36.80;42.70
11005;DHT22;5555;59.622;16.556;2023-06-14T14:25:03;37.20;41.40
11005;DHT22;5555;59.622;16.556;2023-06-14T14:27:29;37.20;40.90
11005;DHT22;5555;59.622;16.556;2023-06-14T14:29:55;38.00;40.00
11005;DHT22;5555;59.622;16.556;2023-06-14T14:32:20;38.60;41.00
11005;DHT22;5555;59.622;16.556;2023-06-14T14:34:46;36.30;42.50
11005;DHT22;5555;59.622;16.556;2023-06-14T14:37:11;36.40;41.80
11005;DHT22;5555;59.622;16.556;2023-06-14T14:39:38;36.80;40.80
11005;DHT22;5555;59.622;16.556;2023-06-14T14:42:04;36.80;41.60
11005;DHT22;5555;59.622;16.556;2023-06-14T14:44:30;37.90;39.50
11005;DHT22;5555;59.622;16.556;2023-06-14T14:46:56;38.70;39.10
11005;DHT22;5555;59.622;16.556;2023-06-14T14:49:21;36.30;41.30
11005;DHT22;5555;59.622;16.556;2023-06-14T14:51:47;34.90;42.30
11005;DHT22;5555;59.622;16.556;2023-06-14T14:54:13;33.40;43.70
11005;DHT22;5555;59.622;16.556;2023-06-14T14:56:38;32.90;45.20
11005;DHT22;5555;59.622;16.556;2023-06-14T14:59:04;32.20;47.10
11005;DHT22;5555;59.622;16.556;2023-06-14T15:01:30;31.40;49.20
11005;DHT22;5555;59.622;16.556;2023-06-14T15:03:56;32.10;47.00
11005;DHT22;5555;59.622;16.556;2023-06-14T15:06:21;32.70;46.40
11005;DHT22;5555;59.622;16.556;2023-06-14T15:08:47;32.70;46.30
11005;DHT22;5555;59.622;16.556;2023-06-14T15:11:12;32.40;47.00
11005;DHT22;5555;59.622;16.556;2023-06-14T15:13:38;31.90;47.60
11005;DHT22;5555;59.622;16.556;2023-06-14T15:16:04;30.90;50.30
11005;DHT22;5555;59.622;16.556;2023-06-14T15:18:29;30.70;49.60
11005;DHT22;5555;59.622;16.556;2023-06-14T15:20:55;30.70;50.10
11005;DHT22;5555;59.622;16.556;2023-06-14T15:23:21;30.90;49.40
11005;DHT22;5555;59.622;16.556;2023-06-14T15:25:47;31.10;49.40
11005;DHT22;5555;59.622;16.556;2023-06-14T15:28:13;30.90;50.00
11005;DHT22;5555;59.622;16.556;2023-06-14T15:30:39;31.10;48.90
11005;DHT22;5555;59.622;16.556;2023-06-14T15:33:04;31.30;48.70
11005;DHT22;5555;59.622;16.556;2023-06-14T15:35:30;31.00;49.50
11005;DHT22;5555;59.622;16.556;2023-06-14T15:40:22;32.90;47.10
11005;DHT22;5555;59.622;16.556;2023-06-14T15:42:47;34.30;47.90
11005;DHT22;5555;59.622;16.556;2023-06-14T15:45:13;34.90;47.40
11005;DHT22;5555;59.622;16.556;2023-06-14T15:47:39;34.90;46.50
11005;DHT22;5555;59.622;16.556;2023-06-14T15:50:05;34.50;46.20
11005;DHT22;5555;59.622;16.556;2023-06-14T15:52:34;34.50;46.40
11005;DHT22;5555;59.622;16.556;2023-06-14T15:54:59;33.90;47.30